createdAt,value
2022-09-25T00:01:49.828Z,12.65
2022-09-25T00:04:20.215Z,11.85
2022-09-25T00:06:49.630Z,13.80
2022-09-25T00:09:21.693Z,12.32
2022-09-25T00:11:51.091Z,13.95
2022-09-25T00:14:20.519Z,14.55
2022-09-25T00:16:52.547Z,14.55
2022-09-25T00:19:35.571Z,14.85
2022-09-25T00:22:04.954Z,14.70
2022-09-25T00:24:34.842Z,14.95
2022-09-25T00:27:06.078Z,14.70
2022-09-25T00:29:35.604Z,16.20
2022-09-25T00:32:07.925Z,15.02
2022-09-25T00:34:37.385Z,16.83
2022-09-25T00:37:07.270Z,15.38
2022-09-25T00:39:36.820Z,18.88
2022-09-25T00:42:06.436Z,16.63
2022-09-25T00:44:56.606Z,15.90
2022-09-25T00:47:31.637Z,16.88
2022-09-25T00:50:01.176Z,17.27
2022-09-25T00:52:30.583Z,18.85
2022-09-25T00:55:02.180Z,18.08
2022-09-25T00:57:32.449Z,16.05
2022-09-25T01:00:03.511Z,15.20
2022-09-25T01:02:39.573Z,16.88
2022-09-25T01:05:11.364Z,20.00
2022-09-25T01:07:42.020Z,19.83
2022-09-25T01:10:11.998Z,20.52
2022-09-25T01:12:43.521Z,18.92
2022-09-25T01:15:13.719Z,20.77
2022-09-25T01:17:47.917Z,20.77
2022-09-25T01:20:19.484Z,19.23
2022-09-25T01:22:54.475Z,21.90
2022-09-25T01:25:30.369Z,21.15
2022-09-25T01:28:09.489Z,20.15
2022-09-25T01:30:44.141Z,17.52
2022-09-25T01:33:16.047Z,18.45
2022-09-25T01:35:48.601Z,17.17
2022-09-25T01:38:24.649Z,17.55
2022-09-25T01:40:56.878Z,16.15
2022-09-25T01:43:27.960Z,16.55
2022-09-25T01:46:03.371Z,15.77
2022-09-25T01:48:34.081Z,13.52
2022-09-25T01:51:04.733Z,12.75
2022-09-25T01:53:36.883Z,14.50
2022-09-25T01:56:08.749Z,15.00
2022-09-25T01:58:39.511Z,15.27
2022-09-25T02:01:13.400Z,14.43
2022-09-25T02:03:44.827Z,13.73
2022-09-25T02:06:16.229Z,14.25
2022-09-25T02:08:47.707Z,16.75
2022-09-25T02:11:17.110Z,15.88
2022-09-25T02:13:49.596Z,17.85
2022-09-25T02:16:23.660Z,15.02
2022-09-25T02:19:05.613Z,17.40
2022-09-25T02:21:40.498Z,17.05
2022-09-25T02:24:15.494Z,22.42
2022-09-25T02:26:44.898Z,17.35
2022-09-25T02:29:15.462Z,18.90
2022-09-25T02:31:49.223Z,21.90
2022-09-25T02:34:18.772Z,20.80
2022-09-25T02:36:48.661Z,17.85
2022-09-25T02:39:19.589Z,19.88
2022-09-25T02:42:08.480Z,20.02
2022-09-25T02:44:43.574Z,17.75
2022-09-25T02:47:22.527Z,22.27
2022-09-25T02:49:53.870Z,22.88
2022-09-25T02:52:28.663Z,23.88
2022-09-25T02:54:59.575Z,23.63
2022-09-25T02:57:32.022Z,24.13
2022-09-25T03:00:03.035Z,24.65
2022-09-25T03:02:35.114Z,24.88
2022-09-25T03:05:04.693Z,25.15
2022-09-25T03:07:54.221Z,24.27
2022-09-25T03:10:21.142Z,22.23
2022-09-25T03:12:50.593Z,19.67
2022-09-25T03:15:20.490Z,20.30
2022-09-25T03:17:53.312Z,20.25
2022-09-25T03:20:22.725Z,19.25
2022-09-25T03:22:52.107Z,21.90
2022-09-25T03:25:22.513Z,21.25
2022-09-25T03:27:51.907Z,19.98
2022-09-25T03:30:21.297Z,17.45
2022-09-25T03:32:53.275Z,15.55
2022-09-25T03:35:23.085Z,15.50
2022-09-25T03:37:52.483Z,15.18
2022-09-25T03:40:21.922Z,14.55
2022-09-25T03:42:51.404Z,15.05
2022-09-25T03:45:20.781Z,14.60
2022-09-25T03:47:52.749Z,13.82
2022-09-25T03:50:22.129Z,13.18
2022-09-25T03:52:51.528Z,11.95
2022-09-25T03:55:22.366Z,12.85
2022-09-25T03:57:51.758Z,13.35
2022-09-25T04:00:21.204Z,13.43
2022-09-25T04:02:53.436Z,14.02
2022-09-25T04:05:22.900Z,12.10
2022-09-25T04:07:52.303Z,11.82
2022-09-25T04:10:21.689Z,9.77
2022-09-25T04:12:55.579Z,12.00
2022-09-25T04:15:25.706Z,10.68
2022-09-25T04:18:01.177Z,12.13
2022-09-25T04:20:34.565Z,12.30
2022-09-25T04:23:04.043Z,12.57
2022-09-25T04:25:33.453Z,13.20
2022-09-25T04:28:02.979Z,11.25
2022-09-25T04:30:32.422Z,12.77
2022-09-25T04:33:16.893Z,10.68
2022-09-25T04:35:46.322Z,11.70
2022-09-25T04:38:15.692Z,14.32
2022-09-25T04:40:46.053Z,12.55
2022-09-25T04:43:15.613Z,11.73
2022-09-25T04:45:47.275Z,11.20
2022-09-25T04:48:19.346Z,11.65
2022-09-25T04:50:51.623Z,12.88
2022-09-25T04:53:23.013Z,12.07
2022-09-25T04:55:54.358Z,11.68
2022-09-25T04:58:23.905Z,12.18
2022-09-25T05:00:53.375Z,11.65
2022-09-25T05:03:25.485Z,10.52
2022-09-25T05:05:54.913Z,13.60
2022-09-25T05:08:24.314Z,11.45
2022-09-25T05:10:53.711Z,14.23
2022-09-25T05:13:23.394Z,15.20
2022-09-25T05:15:52.941Z,17.35
2022-09-25T05:18:25.322Z,11.98
2022-09-25T05:20:55.066Z,10.15
2022-09-25T05:23:24.446Z,10.50
2022-09-25T05:25:55.184Z,11.32
2022-09-25T05:28:24.871Z,9.93
2022-09-25T05:30:54.270Z,11.63
2022-09-25T05:33:26.236Z,10.00
2022-09-25T05:35:55.643Z,10.65
2022-09-25T05:38:25.013Z,10.25
2022-09-25T05:40:54.438Z,11.63
2022-09-25T05:43:24.897Z,10.88
2022-09-25T05:45:57.629Z,11.30
2022-09-25T05:48:29.751Z,11.65
2022-09-25T05:50:59.626Z,9.77
2022-09-25T05:53:30.328Z,10.98
2022-09-25T05:56:01.024Z,10.25
2022-09-25T05:58:31.045Z,12.85
2022-09-25T06:01:03.235Z,15.18
2022-09-25T06:03:35.477Z,9.88
2022-09-25T06:06:05.261Z,9.60
2022-09-25T06:08:35.572Z,10.50
2022-09-25T06:11:05.117Z,9.52
2022-09-25T06:13:35.242Z,12.20
2022-09-25T06:16:05.430Z,12.05
2022-09-25T06:18:37.566Z,10.75
2022-09-25T06:21:08.022Z,13.25
2022-09-25T06:23:37.439Z,11.80
2022-09-25T06:26:09.373Z,11.50
2022-09-25T06:28:38.768Z,13.25
2022-09-25T06:31:08.247Z,11.85
2022-09-25T06:33:40.460Z,10.38
2022-09-25T06:36:09.971Z,12.38
2022-09-25T06:38:39.758Z,13.13
2022-09-25T06:41:09.324Z,13.02
2022-09-25T06:43:38.765Z,13.55
2022-09-25T06:46:08.336Z,13.23
2022-09-25T06:48:40.543Z,14.48
2022-09-25T06:51:11.085Z,13.38
2022-09-25T06:53:40.493Z,13.80
2022-09-25T06:56:13.480Z,14.05
2022-09-25T06:58:42.896Z,13.10
2022-09-25T07:01:13.882Z,12.88
2022-09-25T07:06:16.452Z,12.98
2022-09-25T07:08:46.367Z,13.02
2022-09-25T07:11:16.960Z,11.93
2022-09-25T07:13:46.359Z,11.85
2022-09-25T07:16:16.670Z,13.25
2022-09-25T07:18:48.821Z,12.98
2022-09-25T07:21:19.157Z,18.35
2022-09-25T07:23:49.632Z,14.90
2022-09-25T07:26:22.588Z,13.07
2022-09-25T07:28:55.490Z,11.80
2022-09-25T07:31:26.084Z,12.43
2022-09-25T07:33:58.720Z,11.90
2022-09-25T07:36:28.688Z,12.52
2022-09-25T07:38:58.081Z,12.73
2022-09-25T07:41:27.459Z,11.73
2022-09-25T07:44:27.803Z,12.82
2022-09-25T07:46:46.868Z,11.73
2022-09-25T07:49:18.942Z,12.98
2022-09-25T07:51:48.387Z,13.90
2022-09-25T07:54:17.815Z,13.82
2022-09-25T07:56:47.229Z,14.18
2022-09-25T07:59:16.643Z,14.95
2022-09-25T08:01:51.219Z,14.02
2022-09-25T08:04:25.883Z,13.60
2022-09-25T08:06:55.284Z,13.57
2022-09-25T08:09:24.673Z,14.93
2022-09-25T08:11:54.185Z,14.77
2022-09-25T08:14:27.003Z,15.70
2022-09-25T08:16:57.011Z,13.82
2022-09-25T08:19:28.979Z,13.98
2022-09-25T08:21:58.394Z,13.95
2022-09-25T08:24:27.809Z,12.07
2022-09-25T08:26:57.210Z,12.73
2022-09-25T08:29:27.066Z,16.50
2022-09-25T08:31:56.473Z,14.52
2022-09-25T08:34:40.435Z,15.23
2022-09-25T08:37:12.862Z,14.95
2022-09-25T08:39:42.274Z,14.20
2022-09-25T08:42:13.460Z,15.40
2022-09-25T08:45:02.509Z,16.50
2022-09-25T08:47:55.157Z,15.73
2022-09-25T08:50:25.266Z,16.27
2022-09-25T08:53:00.068Z,15.47
2022-09-25T08:55:51.347Z,17.83
2022-09-25T09:00:51.993Z,20.67
2022-09-25T09:03:21.399Z,19.75
2022-09-25T09:05:51.766Z,16.70
2022-09-25T09:08:25.784Z,17.65
2022-09-25T09:10:56.705Z,16.70
2022-09-25T09:13:28.647Z,16.40
2022-09-25T09:16:01.922Z,15.38
2022-09-25T09:18:33.044Z,16.10
2022-09-25T09:23:37.343Z,16.20
2022-09-25T09:26:07.653Z,15.95
2022-09-25T09:29:00.023Z,17.98
2022-09-25T09:31:32.276Z,18.50
2022-09-25T09:34:07.625Z,16.60
2022-09-25T09:36:39.745Z,15.70
2022-09-25T09:39:16.286Z,14.63
2022-09-25T09:41:54.564Z,14.45
2022-09-25T09:44:31.387Z,16.60
2022-09-25T09:47:10.919Z,17.23
2022-09-25T09:49:42.607Z,17.80
2022-09-25T09:52:14.596Z,15.75
2022-09-25T09:54:47.551Z,16.13
2022-09-25T09:57:20.216Z,16.10
2022-09-25T09:59:52.142Z,15.15
2022-09-25T10:02:30.009Z,15.52
2022-09-25T10:04:59.562Z,15.73
2022-09-25T10:07:29.093Z,14.95
2022-09-25T10:10:01.090Z,14.43
2022-09-25T10:12:32.901Z,15.60
2022-09-25T10:15:04.506Z,12.98
2022-09-25T10:17:36.128Z,14.20
2022-09-25T10:20:07.910Z,14.13
2022-09-25T10:22:39.809Z,12.98
2022-09-25T10:25:12.205Z,11.85
2022-09-25T10:27:46.268Z,12.95
2022-09-25T10:30:23.044Z,13.25
2022-09-25T10:33:00.965Z,10.93
2022-09-25T10:35:31.501Z,11.32
2022-09-25T10:38:02.986Z,11.95
2022-09-25T10:40:36.987Z,9.40
2022-09-25T10:43:08.819Z,10.13
2022-09-25T10:45:40.843Z,10.30
2022-09-25T10:48:39.722Z,9.45
2022-09-25T10:51:10.697Z,9.43
2022-09-25T10:53:40.243Z,10.02
2022-09-25T10:56:13.629Z,12.63
2022-09-25T10:58:44.297Z,10.35
2022-09-25T11:01:14.919Z,9.93
2022-09-25T11:03:49.119Z,10.13
2022-09-25T11:06:25.110Z,10.85
2022-09-25T11:09:07.862Z,11.57
2022-09-25T11:11:39.958Z,10.82
2022-09-25T11:14:11.303Z,11.20
2022-09-25T11:16:49.184Z,10.50
2022-09-25T11:19:22.394Z,10.88
2022-09-25T11:21:59.983Z,9.35
2022-09-25T11:24:33.151Z,9.20
2022-09-25T11:27:07.566Z,8.50
2022-09-25T11:29:44.395Z,6.88
2022-09-25T11:32:17.959Z,5.85
2022-09-25T11:34:58.035Z,4.82
2022-09-25T11:37:29.640Z,5.03
2022-09-25T11:40:23.838Z,6.07
2022-09-25T11:43:00.942Z,6.28
2022-09-25T11:45:36.817Z,5.75
2022-09-25T11:48:08.038Z,4.47
2022-09-25T11:50:47.928Z,3.90
2022-09-25T11:53:22.740Z,4.55
2022-09-25T11:56:02.464Z,8.55
2022-09-25T11:58:41.650Z,11.25
2022-09-25T12:01:21.160Z,6.03
2022-09-25T12:03:59.302Z,4.70
2022-09-25T12:06:49.105Z,4.03
2022-09-25T12:09:26.000Z,3.83
2022-09-25T12:11:59.792Z,2.70
2022-09-25T12:14:35.171Z,2.97
2022-09-25T12:17:07.811Z,4.85
2022-09-25T12:19:40.968Z,3.20
2022-09-25T12:22:13.957Z,5.80
2022-09-25T12:24:53.647Z,4.90
2022-09-25T12:27:26.202Z,2.65
2022-09-25T12:30:11.846Z,3.65
2022-09-25T12:33:05.212Z,3.47
2022-09-25T12:35:42.478Z,5.13
2022-09-25T12:38:19.520Z,6.60
2022-09-25T12:40:51.218Z,4.55
2022-09-25T12:43:24.167Z,4.70
2022-09-25T12:45:59.610Z,5.70
2022-09-25T12:48:33.393Z,5.20
2022-09-25T12:51:05.745Z,3.65
2022-09-25T12:53:38.506Z,4.20
2022-09-25T12:56:13.260Z,5.60
2022-09-25T12:58:50.650Z,6.95
2022-09-25T13:01:25.876Z,4.00
2022-09-25T13:04:01.141Z,4.47
2022-09-25T13:06:34.257Z,4.57
2022-09-25T13:09:05.207Z,3.85
2022-09-25T13:11:38.298Z,4.85
2022-09-25T13:14:09.431Z,6.18
2022-09-25T13:19:14.568Z,6.30
2022-09-25T13:21:44.634Z,8.15
2022-09-25T13:24:16.206Z,7.50
2022-09-25T13:26:47.364Z,5.93
2022-09-25T13:31:55.820Z,8.30
2022-09-25T13:34:26.562Z,6.47
2022-09-25T13:36:56.730Z,6.07
2022-09-25T13:39:42.002Z,9.27
2022-09-25T13:42:18.041Z,10.13
2022-09-25T13:45:07.742Z,7.50
2022-09-25T13:48:06.080Z,6.70
2022-09-25T13:50:41.110Z,8.77
2022-09-25T13:53:26.297Z,5.47
2022-09-25T13:56:29.405Z,5.70
2022-09-25T13:59:23.311Z,7.90
2022-09-25T14:02:00.586Z,5.80
2022-09-25T14:04:39.989Z,12.57
2022-09-25T14:07:16.546Z,7.72
2022-09-25T14:09:47.993Z,6.00
2022-09-25T14:12:25.440Z,11.70
2022-09-25T14:14:58.062Z,6.80
2022-09-25T14:17:29.874Z,5.60
2022-09-25T14:20:02.794Z,6.63
2022-09-25T14:22:44.451Z,6.38
2022-09-25T14:25:27.846Z,8.55
2022-09-25T14:27:57.339Z,6.65
2022-09-25T14:30:29.280Z,6.40
2022-09-25T14:33:17.981Z,5.93
2022-09-25T14:35:57.504Z,6.18
2022-09-25T14:38:47.601Z,5.53
2022-09-25T14:41:28.266Z,7.10
2022-09-25T14:44:06.432Z,7.50
2022-09-25T14:46:35.839Z,6.88
2022-09-25T14:49:07.476Z,4.95
2022-09-25T14:51:44.548Z,4.53
2022-09-25T14:54:17.344Z,7.15
2022-09-25T14:56:48.543Z,6.35
2022-09-25T14:59:19.721Z,7.93
2022-09-25T15:01:50.565Z,8.02
2022-09-25T15:04:28.216Z,7.15
2022-09-25T15:07:06.069Z,6.45
2022-09-25T15:09:42.208Z,10.32
2022-09-25T15:12:19.831Z,8.23
2022-09-25T15:15:07.791Z,8.05
2022-09-25T15:17:37.723Z,7.10
2022-09-25T15:20:09.506Z,7.13
2022-09-25T15:22:41.529Z,7.28
2022-09-25T15:25:11.587Z,8.80
2022-09-25T15:27:42.924Z,10.20
2022-09-25T15:30:17.638Z,8.10
2022-09-25T15:32:47.143Z,9.95
2022-09-25T15:35:20.530Z,9.07
2022-09-25T15:37:52.514Z,7.90
2022-09-25T15:40:25.821Z,4.97
2022-09-25T15:43:02.818Z,7.35
2022-09-25T15:45:40.624Z,8.07
2022-09-25T15:48:20.827Z,10.35
2022-09-25T15:50:50.218Z,9.50
2022-09-25T15:53:24.629Z,9.50
2022-09-25T15:55:54.105Z,9.60
2022-09-25T15:58:23.493Z,9.02
2022-09-25T16:01:13.956Z,8.55
2022-09-25T16:04:00.125Z,10.82
2022-09-25T16:06:30.772Z,8.57
2022-09-25T16:09:20.181Z,8.30
2022-09-25T16:11:50.201Z,9.07
2022-09-25T16:14:22.921Z,9.38
2022-09-25T16:16:52.889Z,10.45
2022-09-25T16:19:27.825Z,10.50
2022-09-25T16:21:57.278Z,9.57
2022-09-25T16:24:29.866Z,10.10
2022-09-25T16:27:00.834Z,9.77
2022-09-25T16:29:30.977Z,11.30
2022-09-25T16:32:03.531Z,13.82
2022-09-25T16:34:33.699Z,10.73
2022-09-25T16:37:05.188Z,10.80
2022-09-25T16:39:38.732Z,9.68
2022-09-25T16:42:27.719Z,11.43
2022-09-25T16:45:04.893Z,12.48
2022-09-25T16:47:35.128Z,12.23
2022-09-25T16:50:04.739Z,13.43
2022-09-25T16:52:34.791Z,10.68
2022-09-25T16:55:09.120Z,10.48
2022-09-25T16:57:41.351Z,10.95
2022-09-25T17:00:19.175Z,10.93
2022-09-25T17:02:49.404Z,10.40
2022-09-25T17:05:20.577Z,12.90
2022-09-25T17:10:23.420Z,12.70
2022-09-25T17:12:54.058Z,13.13
2022-09-25T17:15:25.409Z,10.90
2022-09-25T17:17:55.963Z,13.82
2022-09-25T17:20:25.886Z,15.82
2022-09-25T17:22:55.867Z,14.75
2022-09-25T17:25:38.254Z,10.18
2022-09-25T17:28:08.130Z,9.13
2022-09-25T17:30:37.633Z,10.45
2022-09-25T17:33:07.850Z,10.60
2022-09-25T17:35:42.902Z,9.37
2022-09-25T17:38:12.752Z,10.88
2022-09-25T17:40:45.821Z,14.15
2022-09-25T17:43:16.068Z,9.55
2022-09-25T17:45:49.096Z,11.73
2022-09-25T17:48:23.505Z,9.65
2022-09-25T17:50:52.934Z,15.93
2022-09-25T17:53:23.594Z,9.82
2022-09-25T17:55:55.586Z,10.10
2022-09-25T17:58:25.788Z,10.10
2022-09-25T18:00:55.777Z,15.30
2022-09-25T18:03:25.172Z,12.40
2022-09-25T18:05:55.237Z,14.88
2022-09-25T18:08:24.620Z,14.98
2022-09-25T18:10:58.598Z,15.68
2022-09-25T18:13:28.017Z,9.98
2022-09-25T18:15:58.543Z,10.10
2022-09-25T18:18:48.108Z,14.02
2022-09-25T18:21:41.553Z,11.20
2022-09-25T18:24:10.949Z,10.23
2022-09-25T18:26:42.951Z,9.77
2022-09-25T18:29:12.656Z,11.57
2022-09-25T18:31:42.272Z,10.48
2022-09-25T18:34:11.677Z,11.20
2022-09-25T18:36:41.056Z,10.38
2022-09-25T18:39:13.756Z,11.27
2022-09-25T18:41:48.453Z,14.98
2022-09-25T18:44:19.577Z,16.33
2022-09-25T18:49:18.812Z,16.83
2022-09-25T18:51:48.294Z,15.63
2022-09-25T18:54:17.869Z,15.75
2022-09-25T18:56:49.860Z,15.13
2022-09-25T18:59:19.278Z,13.40
2022-09-25T19:01:48.841Z,12.80
2022-09-25T19:04:20.813Z,12.23
2022-09-25T19:06:50.259Z,12.80
2022-09-25T19:09:19.967Z,12.40
2022-09-25T19:11:52.074Z,10.80
2022-09-25T19:14:21.523Z,11.63
2022-09-25T19:16:51.824Z,12.55
2022-09-25T19:19:21.420Z,11.48
2022-09-25T19:21:50.811Z,8.23
2022-09-25T19:24:20.928Z,11.32
2022-09-25T19:26:52.928Z,9.93
2022-09-25T19:29:22.550Z,12.35
2022-09-25T19:31:51.943Z,8.73
2022-09-25T19:34:21.360Z,8.48
2022-09-25T19:36:51.056Z,9.68
2022-09-25T19:39:20.586Z,10.70
2022-09-25T19:41:50.266Z,11.63
2022-09-25T19:44:23.000Z,6.97
2022-09-25T19:46:52.544Z,8.43
2022-09-25T19:49:22.601Z,8.43
2022-09-25T19:51:51.990Z,7.65
2022-09-25T19:54:21.485Z,7.95
2022-09-25T19:56:50.867Z,8.38
2022-09-25T19:59:23.144Z,6.45
2022-09-25T20:01:53.506Z,8.50
2022-09-25T20:04:23.016Z,9.30
2022-09-25T20:06:52.394Z,8.38
2022-09-25T20:09:21.781Z,7.05
2022-09-25T20:11:51.158Z,7.22
2022-09-25T20:14:25.620Z,10.93
2022-09-25T20:16:55.840Z,8.35
2022-09-25T20:19:26.000Z,9.77
2022-09-25T20:21:55.999Z,7.60
2022-09-25T20:24:25.557Z,7.60
2022-09-25T20:26:55.558Z,9.70
2022-09-25T20:29:27.596Z,6.97
2022-09-25T20:31:57.041Z,8.50
2022-09-25T20:34:26.656Z,8.20
2022-09-25T20:36:56.062Z,8.10
2022-09-25T20:39:27.442Z,9.80
2022-09-25T20:41:56.829Z,6.55
2022-09-25T20:44:28.808Z,6.50
2022-09-25T20:46:58.284Z,9.27
2022-09-25T20:49:27.799Z,9.43
2022-09-25T20:51:57.203Z,9.10
2022-09-25T20:54:27.197Z,7.22
2022-09-25T20:56:56.697Z,7.55
2022-09-25T20:59:28.997Z,5.82
2022-09-25T21:01:58.762Z,10.85
2022-09-25T21:04:28.398Z,9.45
2022-09-25T21:06:57.779Z,6.75
2022-09-25T21:09:29.026Z,9.20
2022-09-25T21:11:58.814Z,8.32
2022-09-25T21:14:33.174Z,8.27
2022-09-25T21:17:02.592Z,5.20
2022-09-25T21:19:32.081Z,6.15
2022-09-25T21:22:01.464Z,6.43
2022-09-25T21:24:30.916Z,7.57
2022-09-25T21:27:00.346Z,5.43
2022-09-25T21:29:33.789Z,6.97
2022-09-25T21:32:03.898Z,5.63
2022-09-25T21:34:33.475Z,5.57
2022-09-25T21:37:02.858Z,5.95
2022-09-25T21:39:32.284Z,6.80
2022-09-25T21:42:03.064Z,7.07
2022-09-25T21:44:35.433Z,5.10
2022-09-25T21:47:04.831Z,7.07
2022-09-25T21:49:34.320Z,6.47
2022-09-25T21:52:04.441Z,6.15
2022-09-25T21:54:33.969Z,8.35
2022-09-25T21:57:03.362Z,4.65
2022-09-25T21:59:35.521Z,6.35
2022-09-25T22:02:04.929Z,7.38
2022-09-25T22:04:34.331Z,8.07
2022-09-25T22:07:03.722Z,7.72
2022-09-25T22:09:33.104Z,7.18
2022-09-25T22:12:02.493Z,6.85
2022-09-25T22:14:31.918Z,6.63
2022-09-25T22:17:04.027Z,7.20
2022-09-25T22:19:33.483Z,9.55
2022-09-25T22:22:02.984Z,8.43
2022-09-25T22:24:32.389Z,6.72
2022-09-25T22:27:01.814Z,6.05
2022-09-25T22:29:31.819Z,6.60
2022-09-25T22:32:04.093Z,5.45
2022-09-25T22:34:33.648Z,5.03
2022-09-25T22:37:03.038Z,6.28
2022-09-25T22:39:32.490Z,6.55
2022-09-25T22:42:02.055Z,7.07
2022-09-25T22:44:31.470Z,7.40
2022-09-25T22:47:03.921Z,11.50
2022-09-25T22:49:36.144Z,9.02
2022-09-25T22:52:05.562Z,7.88
2022-09-25T22:54:35.006Z,7.47
2022-09-25T22:57:04.397Z,8.82
2022-09-25T22:59:33.842Z,8.52
2022-09-25T23:02:03.229Z,8.27
2022-09-25T23:04:32.649Z,8.27
2022-09-25T23:07:04.610Z,7.60
2022-09-25T23:09:33.993Z,8.07
2022-09-25T23:12:03.962Z,8.95
2022-09-25T23:14:33.762Z,7.10
2022-09-25T23:17:03.272Z,8.13
2022-09-25T23:19:32.676Z,6.57
2022-09-25T23:22:05.322Z,6.50
2022-09-25T23:24:34.881Z,6.43
2022-09-25T23:27:04.293Z,9.57
2022-09-25T23:29:33.739Z,6.78
2022-09-25T23:32:08.014Z,10.18
2022-09-25T23:34:37.483Z,5.25
2022-09-25T23:37:09.480Z,6.55
2022-09-25T23:39:39.066Z,9.70
2022-09-25T23:42:08.627Z,7.60
2022-09-25T23:44:38.072Z,6.13
2022-09-25T23:47:07.566Z,7.28
2022-09-25T23:49:36.946Z,6.53
2022-09-25T23:52:08.961Z,6.97
2022-09-25T23:54:38.363Z,6.57
2022-09-25T23:57:07.778Z,6.60
2022-09-25T23:59:37.189Z,7.75
